Terminal Aerodrome Forecast
Issued by NWS

Home | Current Version | Previous Version | Text Only | Print | Product List | Glossary On
Versions: 1 2 3 4 5 6 7 8 9 10 11 12 13 14 15 16 17 18 19 20 21 22 23 24 25 26 27 28 29 30 31 32 33 34
000
FTUS45 KSLC 220747 AAA
TAFOGD
TAF AMD
KOGD 220747Z 2208/2306 17007KT P6SM VCTS SCT040CB BKN070
      TEMPO 2208/2209 VRB15G25KT 5SM -TSRA BKN040CB
     FM220900 13007KT P6SM VCSH SCT040 BKN070
     FM221900 28005KT P6SM SCT090=

USA.gov is the U.S. government's official web portal to all federal, state and local government web resources and services.